Time;durP1;ratioP1;P1;durP2;ratioP2;P2;SDS_P1;SDS_P2;PMS_P1;PMS_P2;Temp;Humidity;BMP_temperature;BMP_pressure;BME280_temperature;BME280_humidity;BME280_pressure;Samples;Min_cycle;Max_cycle;Signal;HPM_P1;HPM_P2
2021/06/16 00:02:39;;;;;;;35.85;19.85;;;;;;;17.39;73.06;92845.66;5021435;28;20069;-94
2021/06/16 00:08:47;;;;;;;42.35;21.80;;;;;;;17.53;73.53;92862.06;5053784;28;20045;-92
2021/06/16 00:14:59;;;;;;;49.60;26.08;;;;;;;17.48;73.25;92856.97;5044905;28;20116;-92
2021/06/16 00:18:09;;;;;;;50.45;26.42;;;;;;;17.39;73.69;92849.06;5020285;28;20045;-92
2021/06/16 00:24:39;;;;;;;52.47;25.38;;;;;;;17.57;73.51;92876.22;5012336;28;20132;-92
2021/06/16 00:27:39;;;;;;;46.92;24.05;;;;;;;17.39;73.58;92848.31;5038187;28;20053;-93
2021/06/16 00:30:18;;;;;;;;;;;;;;;17.67;73.41;92897.06;5046949;28;20053;-92
2021/06/16 00:33:31;;;;;;;48.50;23.92;;;;;;;17.32;73.59;92837.47;5044433;28;20005;-92
2021/06/16 00:36:48;;;;;;;;;;;;;;;;;;;;;
2021/06/16 00:43:45;;;;;;;51.20;25.47;;;;;;;17.33;73.55;92834.47;5019470;28;20461;-94
2021/06/16 00:46:25;;;;;;;52.85;26.65;;;;;;;17.63;73.78;92884.75;5012307;28;20069;-93
2021/06/16 00:49:13;;;;;;;52.63;26.92;;;;;;;17.43;73.68;92855.28;5005136;28;20052;-92
2021/06/16 00:55:42;;;;;;;;;;;;;;;;;;;;;
2021/06/16 00:58:19;;;;;;;49.28;25.08;;;;;;;17.23;73.68;92830.31;5002541;28;20048;-94
2021/06/16 01:01:29;;;;;;;44.67;24.25;;;;;;;17.60;73.80;92886.16;5031164;28;20042;-93
2021/06/16 01:04:41;;;;;;;44.45;24.38;;;;;;;17.59;74.11;92886.50;4902222;28;20539;-93
2021/06/16 01:07:18;;;;;;;54.50;25.33;;;;;;;17.46;73.63;92869.75;4891587;28;20055;-94
2021/06/16 01:09:57;;;;;;;45.28;24.35;;;;;;;17.59;73.51;92884.63;4917352;28;20509;-93
2021/06/16 01:12:54;;;;;;;;;;;;;;;;;;;;;
2021/06/16 01:16:01;;;;;;;44.83;24.63;;;;;;;17.31;73.26;92833.25;4934020;28;20513;-94
2021/06/16 01:19:00;;;;;;;;;;;;;;;;;;;;;
2021/06/16 01:22:10;;;;;;;;;;;;;;;;;;;;;
2021/06/16 01:25:08;;;;;;;36.83;22.15;;;;;;;17.40;73.14;92853.25;4932814;28;20044;-93
2021/06/16 01:27:52;;;;;;;;;;;;;;;;;;;;;
2021/06/16 01:30:38;;;;;;;38.03;21.70;;;;;;;17.17;72.99;92814.94;4958659;28;20044;-93
2021/06/16 01:33:47;;;;;;;36.60;21.55;;;;;;;17.24;73.27;92825.81;4913917;28;20052;-94
2021/06/16 01:37:00;;;;;;;;;;;;;;;;;;;;;
2021/06/16 01:39:46;;;;;;;38.20;21.42;;;;;;;17.19;73.16;92812.75;4932111;28;20095;-94
2021/06/16 01:42:38;;;;;;;39.05;21.60;;;;;;;17.18;73.06;92811.19;4930991;28;20095;-93
2021/06/16 01:45:24;;;;;;;38.45;21.65;;;;;;;17.17;72.91;92807.78;4963001;28;20047;-94
2021/06/16 01:48:20;;;;;;;35.10;20.83;;;;;;;17.28;72.96;92827.50;4976049;28;20500;-92
2021/06/16 01:54:34;;;;;;;;;;;;;;;;;;;;;
2021/06/16 01:57:37;;;;;;;;;;;;;;;;;;;;;
2021/06/16 02:00:21;;;;;;;40.28;21.15;;;;;;;17.22;73.11;92817.41;4933352;29;20111;-93
2021/06/16 02:03:27;;;;;;;40.58;21.30;;;;;;;17.10;72.96;92804.88;4976820;28;20056;-93
2021/06/16 02:06:39;;;;;;;45.63;22.23;;;;;;;17.41;72.77;92856.72;4944356;28;20047;-92
2021/06/16 02:09:29;;;;;;;39.75;21.33;;;;;;;17.06;72.49;92798.66;4940419;28;20500;-93
2021/06/16 02:12:56;;;;;;;;;;;;;;;;;;;;;
2021/06/16 02:19:03;;;;;;;;;;;;;;;;;;;;;
2021/06/16 02:21:49;;;;;;;46.08;24.23;;;;;;;16.99;72.84;92803.66;4953685;28;20109;-92
2021/06/16 02:24:40;;;;;;;45.28;25.92;;;;;;;17.13;73.67;92824.59;4937681;28;20051;-93
2021/06/16 02:27:32;;;;;;;;;;;;;;;;;;;;;
2021/06/16 02:30:15;;;;;;;49.05;25.83;;;;;;;16.85;73.40;92783.50;5008260;28;20056;-93
2021/06/16 02:33:21;;;;;;;50.88;25.42;;;;;;;17.18;73.76;92843.75;4947492;28;20043;-92
2021/06/16 02:36:16;;;;;;;43.10;25.23;;;;;;;17.09;73.66;92828.97;4924783;28;20055;-92
2021/06/16 02:39:34;;;;;;;;;;;;;;;;;;;;;
2021/06/16 02:42:19;;;;;;;42.15;24.25;;;;;;;16.83;73.85;92790.97;4949241;28;20070;-95
2021/06/16 02:45:03;;;;;;;44.05;24.92;;;;;;;16.80;73.88;92788.97;4954731;28;20105;-94
2021/06/16 02:47:41;;;;;;;46.95;25.38;;;;;;;16.97;74.27;92817.19;4951824;28;20077;-93
2021/06/16 02:50:25;;;;;;;44.85;25.23;;;;;;;16.76;73.76;92785.38;4954234;28;20045;-93
2021/06/16 02:56:07;;;;;;;49.50;25.50;;;;;;;16.76;74.15;92779.31;4935684;28;20135;-93
2021/06/16 02:59:10;;;;;;;50.08;24.63;;;;;;;17.13;73.98;92821.97;4997278;28;20519;-93
2021/06/16 03:02:02;;;;;;;50.03;25.73;;;;;;;16.76;74.04;92766.88;4963193;28;20164;-94
2021/06/16 03:04:38;;;;;;;43.75;24.00;;;;;;;16.85;74.54;92769.50;4937734;28;20040;-94
2021/06/16 03:07:30;;;;;;;42.42;22.23;;;;;;;16.82;74.72;92784.16;4940787;28;20059;-93
2021/06/16 03:10:14;;;;;;;39.60;23.75;;;;;;;17.04;74.97;92819.34;4953783;29;20562;-92
2021/06/16 03:12:55;;;;;;;39.20;22.02;;;;;;;16.93;74.96;92820.78;4937800;28;20138;-94
2021/06/16 03:15:50;;;;;;;37.55;21.90;;;;;;;16.99;74.88;92824.81;4922513;28;20051;-92
2021/06/16 03:18:46;;;;;;;;;;;;;;;;;;;;;
2021/06/16 03:21:39;;;;;;;40.20;22.42;;;;;;;16.78;75.81;92812.28;4939158;28;20045;-94
2021/06/16 03:24:22;;;;;;;46.00;25.70;;;;;;;16.91;75.75;92831.72;4935152;28;20067;-94
2021/06/16 03:27:28;;;;;;;46.90;24.17;;;;;;;16.80;75.62;92818.06;4933878;28;20085;-94
2021/06/16 03:30:16;;;;;;;44.03;24.80;;;;;;;16.53;75.91;92781.41;4939265;28;20074;-94
2021/06/16 03:33:28;;;;;;;46.13;23.98;;;;;;;16.57;75.95;92793.69;4936508;28;20066;-94
2021/06/16 03:36:46;;;;;;;50.67;23.55;;;;;;;16.55;76.23;92790.59;4949108;28;20413;-95
2021/06/16 03:39:49;;;;;;;46.97;24.35;;;;;;;16.81;76.46;92842.63;4923393;28;20074;-95
2021/06/16 03:42:48;;;;;;;;;;;;;;;;;;;;;
2021/06/16 03:45:37;;;;;;;44.22;24.40;;;;;;;16.42;76.79;92789.66;4947201;28;20036;-94
2021/06/16 03:48:36;;;;;;;51.22;26.63;;;;;;;16.68;76.52;92815.25;4954927;28;20058;-92
2021/06/16 03:51:33;;;;;;;52.88;26.73;;;;;;;16.45;76.44;92781.09;4954773;28;20500;-93
2021/06/16 04:00:46;;;;;;;59.95;27.48;;;;;;;16.57;76.53;92782.31;4939751;28;20055;-95
2021/06/16 04:03:55;;;;;;;55.90;27.27;;;;;;;16.91;76.47;92830.91;4927988;28;20059;-94
2021/06/16 04:06:45;;;;;;;;;;;;;;;;;;;;;
2021/06/16 04:09:17;;;;;;;48.70;26.00;;;;;;;16.63;76.14;92783.72;4919061;28;20075;-94
2021/06/16 04:12:18;;;;;;;53.90;26.42;;;;;;;16.81;76.07;92811.66;4935589;28;20051;-94
2021/06/16 04:15:17;;;;;;;;;;;;;;;;;;;;;
2021/06/16 04:17:59;;;;;;;;;;;;;;;;;;;;;
2021/06/16 04:21:12;;;;;;;46.97;26.65;;;;;;;16.82;75.75;92789.44;4932153;28;20048;-94
2021/06/16 04:24:02;;;;;;;;;;;;;;;;;;;;;
2021/06/16 04:27:14;;;;;;;;;;;;;;;;;;;;;
2021/06/16 04:30:13;;;;;;;40.67;23.40;;;;;;;17.04;75.63;92790.25;4921440;28;20043;-95
2021/06/16 04:32:49;;;;;;;52.08;26.80;;;;;;;17.09;75.23;92782.16;4905001;28;20489;-95
2021/06/16 04:35:26;;;;;;;53.15;24.20;;;;;;;17.33;75.17;92815.94;4957215;28;20050;-94
2021/06/16 04:38:41;;;;;;;;;;;;;;;;;;;;;
2021/06/16 04:41:35;;;;;;;45.42;24.65;;;;;;;17.27;74.92;92782.84;4902480;28;20087;-93
2021/06/16 04:44:14;;;;;;;49.20;26.02;;;;;;;17.41;74.55;92793.19;4976063;28;20057;-94
2021/06/16 05:11:01;;;;;;;;;;;;;;;;;;;;;
2021/06/16 05:14:17;;;;;;;;;;;;;;;;;;;;;
2021/06/16 05:20:57;;;;;;;;;;;;;;;;;;;;;
2021/06/16 05:24:13;;;;;;;;;;;;;;;;;;;;;
2021/06/16 05:27:18;;;;;;;43.92;23.73;;;;;;;19.45;68.70;92804.69;4937610;28;20044;-93
2021/06/16 05:30:47;;;;;;;;;;;;;;;;;;;;;
2021/06/16 05:33:56;;;;;;;45.63;24.05;;;;;;;19.90;67.86;92809.06;4950188;28;20050;-93
2021/06/16 05:37:34;;;;;;;;;;;;;;;;;;;;;
2021/06/16 05:40:48;;;;;;;42.63;22.63;;;;;;;20.73;65.96;92814.75;4957394;28;20189;-94
2021/06/16 05:44:17;;;;;;;41.10;22.90;;;;;;;21.35;64.64;92858.50;4941005;28;20539;-93
2021/06/16 05:47:09;;;;;;;42.67;23.52;;;;;;;21.43;62.64;92814.19;4943649;28;20090;-95
2021/06/16 05:50:17;;;;;;;42.35;23.48;;;;;;;22.07;60.33;92822.06;4954022;28;20091;-95
2021/06/16 05:53:13;;;;;;;50.70;23.15;;;;;;;22.24;58.51;92830.41;4951844;28;20040;-95
2021/06/16 05:56:12;;;;;;;41.47;21.90;;;;;;;22.12;59.69;92845.75;4921999;28;20080;-96
2021/06/16 05:59:15;;;;;;;40.28;22.17;;;;;;;21.56;61.29;92842.25;4943149;28;20043;-95
2021/06/16 06:09:00;;;;;;;35.90;21.90;;;;;;;20.97;61.64;92862.50;4957253;28;20372;-94
2021/06/16 06:11:59;;;;;;;42.92;24.90;;;;;;;20.59;60.84;92821.25;4938002;28;20079;-95
2021/06/16 06:15:17;;;;;;;47.03;27.30;;;;;;;20.35;62.51;92861.19;4940760;28;20116;-95
2021/06/16 06:18:56;;;;;;;;;;;;;;;;;;;;;
2021/06/16 06:21:35;;;;;;;51.15;28.20;;;;;;;20.50;61.58;92879.09;4996021;23;20867;-77
2021/06/16 06:24:02;;;;;;;50.45;27.73;;;;;;;20.67;62.88;92880.72;4987136;28;20095;-77
2021/06/16 06:26:28;;;;;;;55.55;28.27;;;;;;;20.58;63.93;92875.56;4973507;28;20112;-77
2021/06/16 06:28:54;;;;;;;52.10;26.75;;;;;;;20.59;68.21;92881.66;4989149;28;20042;-76
2021/06/16 06:31:21;;;;;;;47.92;28.25;;;;;;;20.56;66.14;92877.78;4982672;28;20096;-76
2021/06/16 06:33:47;;;;;;;49.35;26.95;;;;;;;20.75;63.20;92879.78;4941924;28;20088;-77
2021/06/16 06:36:13;;;;;;;60.08;30.95;;;;;;;20.70;61.64;92881.94;4954006;28;20071;-76
2021/06/16 06:38:39;;;;;;;46.33;26.30;;;;;;;20.55;63.08;92876.19;4953725;28;20500;-76
2021/06/16 06:41:04;;;;;;;48.03;25.40;;;;;;;21.26;62.06;92870.44;4971779;28;20085;-76
2021/06/16 06:43:30;;;;;;;42.78;24.73;;;;;;;21.51;59.74;92871.06;4985454;28;20152;-77
2021/06/16 06:45:55;;;;;;;43.55;24.48;;;;;;;21.87;57.59;92871.88;4970350;28;20058;-76
2021/06/16 06:48:21;;;;;;;51.90;28.50;;;;;;;21.75;58.00;92862.88;4960091;28;20073;-76
2021/06/16 06:50:47;;;;;;;50.38;26.63;;;;;;;21.23;62.20;92877.19;4972198;28;20389;-77
2021/06/16 06:53:14;;;;;;;53.83;27.77;;;;;;;21.79;61.61;92877.03;4947089;28;20123;-77
2021/06/16 06:55:41;;;;;;;49.50;28.20;;;;;;;21.68;61.52;92869.91;4977749;28;20515;-78
2021/06/16 06:58:07;;;;;;;63.30;30.85;;;;;;;21.59;61.05;92864.75;4977700;28;20088;-78
2021/06/16 07:00:32;;;;;;;48.90;25.20;;;;;;;21.35;62.64;92879.03;4977431;28;20047;-77
2021/06/16 07:02:58;;;;;;;55.42;26.08;;;;;;;21.30;62.38;92869.41;4978534;28;20035;-78
2021/06/16 07:05:25;;;;;;;59.50;29.50;;;;;;;21.44;63.21;92876.22;4960411;28;20050;-77
2021/06/16 07:07:51;;;;;;;51.70;30.67;;;;;;;21.40;60.14;92871.56;4977597;28;20043;-78
2021/06/16 07:10:17;;;;;;;67.50;32.72;;;;;;;21.45;59.58;92883.09;4978525;28;20050;-78
2021/06/16 07:12:42;;;;;;;60.90;30.75;;;;;;;21.33;61.85;92874.03;4976754;28;20097;-78
2021/06/16 07:15:09;;;;;;;61.50;32.20;;;;;;;21.41;60.99;92877.66;4960769;28;20160;-78
2021/06/16 07:17:35;;;;;;;60.03;32.00;;;;;;;21.45;61.29;92880.41;4990741;28;20058;-77
2021/06/16 07:20:05;;;;;;;61.28;31.45;;;;;;;21.45;60.65;92875.88;4996163;28;20467;-78
2021/06/16 07:22:31;;;;;;;67.93;33.63;;;;;;;21.35;60.54;92874.47;5042440;28;20518;-78
2021/06/16 07:24:57;;;;;;;57.72;32.08;;;;;;;21.37;60.91;92880.22;5061489;28;20076;-78
2021/06/16 07:27:23;;;;;;;58.00;32.03;;;;;;;21.29;61.80;92883.06;5044318;28;20151;-78
2021/06/16 07:29:49;;;;;;;60.83;30.70;;;;;;;21.28;63.30;92884.94;5061814;28;20045;-78
2021/06/16 07:32:16;;;;;;;54.28;29.67;;;;;;;21.23;63.33;92882.53;5044464;28;20064;-78
2021/06/16 07:34:42;;;;;;;54.60;30.83;;;;;;;21.22;63.30;92881.00;5062136;28;20508;-77
2021/06/16 07:37:07;;;;;;;60.40;30.83;;;;;;;21.34;63.68;92888.13;5064530;28;20060;-77
2021/06/16 07:39:33;;;;;;;51.63;28.67;;;;;;;21.26;64.38;92886.41;5094117;28;20421;-78
2021/06/16 07:41:59;;;;;;;53.80;29.63;;;;;;;20.74;64.19;92885.47;5062957;28;20516;-78
2021/06/16 07:44:25;;;;;;;59.88;30.35;;;;;;;21.14;64.63;92882.72;5080285;28;20464;-78
2021/06/16 07:46:51;;;;;;;59.30;31.50;;;;;;;21.16;61.71;92885.00;5079422;28;20486;-78
2021/06/16 07:49:17;;;;;;;53.20;28.58;;;;;;;21.08;63.60;92889.41;5079279;28;20053;-77
2021/06/16 07:51:43;;;;;;;55.47;30.17;;;;;;;21.33;62.67;92892.69;5076241;28;20075;-78
2021/06/16 07:54:11;;;;;;;58.92;33.22;;;;;;;21.29;60.04;92891.81;5079167;28;20040;-78
2021/06/16 07:56:38;;;;;;;63.42;32.00;;;;;;;21.30;62.58;92890.72;5079392;28;20087;-77
2021/06/16 07:59:04;;;;;;;45.30;27.83;;;;;;;21.40;63.75;92882.22;5078766;28;20041;-78
2021/06/16 08:01:29;;;;;;;61.10;30.17;;;;;;;21.41;63.53;92886.44;5079030;28;20055;-79
2021/06/16 08:03:55;;;;;;;46.70;27.25;;;;;;;21.55;63.57;92891.34;5079736;28;20044;-78
2021/06/16 08:06:21;;;;;;;52.05;27.98;;;;;;;21.89;63.09;92886.41;5078341;28;20037;-77
2021/06/16 08:08:47;;;;;;;50.15;28.65;;;;;;;22.05;61.93;92889.03;5078309;28;20445;-77
2021/06/16 08:11:14;;;;;;;55.08;28.55;;;;;;;21.95;62.79;92884.22;5061169;28;20044;-78
2021/06/16 08:13:39;;;;;;;51.33;28.63;;;;;;;21.49;63.55;92889.28;5077934;28;20036;-77
2021/06/16 08:16:05;;;;;;;51.38;29.58;;;;;;;21.72;62.84;92879.53;5060598;28;20416;-77
2021/06/16 08:18:30;;;;;;;54.08;29.65;;;;;;;21.88;61.58;92878.75;5078753;28;20502;-78
2021/06/16 08:20:56;;;;;;;49.92;28.13;;;;;;;22.27;60.58;92890.28;5076896;28;20121;-77
2021/06/16 08:23:22;;;;;;;54.28;28.70;;;;;;;22.21;60.63;92887.13;5042184;28;20071;-77
2021/06/16 08:25:47;;;;;;;51.15;27.88;;;;;;;22.13;60.25;92885.38;5078169;28;20074;-77
2021/06/16 08:28:13;;;;;;;50.45;28.17;;;;;;;22.31;60.00;92879.69;5078246;28;20058;-78
2021/06/16 08:30:39;;;;;;;50.78;28.50;;;;;;;22.90;59.25;92883.13;5078945;28;20055;-77
2021/06/16 08:33:04;;;;;;;49.83;27.00;;;;;;;23.16;58.26;92875.22;5078758;28;20059;-77
2021/06/16 08:35:30;;;;;;;48.33;26.92;;;;;;;23.04;57.86;92883.41;5078656;28;20147;-77
2021/06/16 08:37:56;;;;;;;50.13;26.55;;;;;;;22.98;59.55;92882.91;5078609;28;20053;-79
2021/06/16 08:40:21;;;;;;;46.35;26.70;;;;;;;23.26;58.48;92884.56;5060189;28;20045;-77
2021/06/16 08:42:48;;;;;;;50.47;25.08;;;;;;;22.80;58.18;92879.91;5060657;28;20056;-79
2021/06/16 08:45:16;;;;;;;41.97;26.63;;;;;;;23.02;57.65;92885.66;5077671;28;20044;-77
2021/06/16 08:47:44;;;;;;;47.70;26.00;;;;;;;23.31;57.44;92880.84;5077740;28;20041;-78
2021/06/16 08:50:11;;;;;;;50.90;27.08;;;;;;;23.04;57.59;92894.88;5079015;28;20040;-78
2021/06/16 08:52:38;;;;;;;49.17;28.25;;;;;;;22.76;56.55;92883.63;5079216;28;20049;-78
2021/06/16 08:55:09;;;;;;;51.42;28.48;;;;;;;22.49;58.39;92891.47;5060481;28;20055;-78
2021/06/16 08:57:34;;;;;;;51.65;28.63;;;;;;;22.62;57.57;92897.47;5078810;28;20044;-78
2021/06/16 09:00:00;;;;;;;46.92;27.27;;;;;;;22.79;57.73;92888.28;5060853;28;20036;-77
2021/06/16 09:02:26;;;;;;;52.70;28.45;;;;;;;22.69;57.93;92899.50;5077916;28;20410;-77
2021/06/16 09:04:53;;;;;;;59.30;30.05;;;;;;;22.64;57.35;92896.00;5079149;28;20044;-77
2021/06/16 09:07:24;;;;;;;51.13;27.92;;;;;;;22.45;58.39;92896.00;5077556;28;20048;-79
2021/06/16 09:10:07;;;;;;;54.17;29.27;;;;;;;22.76;57.05;92896.97;5077669;28;20409;-77
2021/06/16 09:12:36;;;;;;;52.55;26.77;;;;;;;22.72;58.41;92899.59;5077389;28;20333;-78
2021/06/16 09:15:09;;;;;;;51.85;27.88;;;;;;;22.49;58.39;92888.81;5077307;28;20138;-78
2021/06/16 09:17:34;;;;;;;56.45;28.13;;;;;;;22.61;57.94;92902.03;5059760;28;20080;-78
2021/06/16 09:20:00;;;;;;;49.50;27.95;;;;;;;22.58;57.45;92894.72;5078583;28;20044;-77
2021/06/16 09:22:34;;;;;;;66.78;29.40;;;;;;;22.63;57.23;92894.47;5074870;28;20056;-78
2021/06/16 09:25:04;;;;;;;68.22;31.23;;;;;;;22.51;57.14;92902.59;5077443;28;20401;-78
2021/06/16 09:27:50;;;;;;;62.03;29.08;;;;;;;22.90;56.69;92904.47;5078018;28;20515;-77
2021/06/16 09:30:19;;;;;;;48.72;27.08;;;;;;;22.76;57.59;92900.41;5059604;28;20071;-77
2021/06/16 09:32:52;;;;;;;51.63;29.23;;;;;;;22.82;57.41;92898.22;5059258;28;20498;-78
2021/06/16 09:35:24;;;;;;;51.00;28.30;;;;;;;22.94;57.46;92903.41;5077195;28;20071;-78
2021/06/16 09:37:50;;;;;;;55.47;27.42;;;;;;;23.22;57.29;92905.88;5076922;28;20081;-78
2021/06/16 09:40:31;;;;;;;50.05;28.20;;;;;;;23.17;56.48;92902.69;5074232;28;20052;-78
2021/06/16 09:43:00;;;;;;;50.17;26.55;;;;;;;23.18;56.48;92901.59;5077775;28;20110;-78
2021/06/16 09:45:26;;;;;;;57.15;27.02;;;;;;;23.45;56.12;92905.09;5077105;28;20062;-78
2021/06/16 09:47:52;;;;;;;51.05;27.60;;;;;;;23.21;56.52;92890.19;5057741;28;20079;-77
2021/06/16 09:50:26;;;;;;;50.55;27.75;;;;;;;23.07;57.42;92898.72;5059693;28;20052;-78
2021/06/16 09:52:53;;;;;;;49.30;29.25;;;;;;;22.83;58.22;92900.56;5059214;28;20375;-78
2021/06/16 09:55:21;;;;;;;51.03;30.50;;;;;;;22.93;57.43;92899.22;5077391;28;20048;-77
2021/06/16 09:58:16;;;;;;;55.58;28.90;;;;;;;23.31;57.10;92900.28;5060862;28;20128;-76
2021/06/16 10:00:46;;;;;;;55.08;30.00;;;;;;;22.99;58.91;92903.19;5056592;28;20060;-78
2021/06/16 10:03:22;;;;;;;58.83;30.48;;;;;;;22.84;58.86;92904.00;5057025;28;20392;-78
2021/06/16 10:06:08;;;;;;;58.20;31.30;;;;;;;22.98;58.65;92903.50;5057638;28;20105;-78
2021/06/16 10:08:46;;;;;;;54.15;31.60;;;;;;;23.11;59.34;92904.13;5049776;28;20399;-78
2021/06/16 10:11:17;;;;;;;52.13;30.25;;;;;;;23.20;59.12;92902.00;5038930;28;20041;-78
2021/06/16 10:13:43;;;;;;;67.15;31.88;;;;;;;22.91;59.04;92904.13;5057409;28;20128;-79
2021/06/16 10:16:09;;;;;;;57.90;32.83;;;;;;;22.96;58.97;92895.81;5062041;28;20028;-78
2021/06/16 10:18:40;;;;;;;56.78;28.83;;;;;;;23.33;58.20;92895.38;5059100;28;20052;-78
2021/06/16 10:21:08;;;;;;;53.45;30.67;;;;;;;23.19;58.45;92895.09;5076305;28;20566;-78
2021/06/16 10:23:34;;;;;;;54.38;28.88;;;;;;;23.04;58.93;92902.09;5076126;28;20052;-79
2021/06/16 10:26:04;;;;;;;54.05;31.70;;;;;;;23.28;59.07;92892.97;5059721;28;20086;-78
2021/06/16 10:28:55;;;;;;;58.80;30.58;;;;;;;23.01;59.45;92900.13;5077308;28;20072;-78
2021/06/16 10:31:22;;;;;;;51.95;28.85;;;;;;;22.72;60.71;92894.25;5056445;28;20041;-79
2021/06/16 10:33:57;;;;;;;47.00;29.45;;;;;;;22.74;60.64;92892.00;5056431;28;20111;-77
2021/06/16 10:36:24;;;;;;;58.90;30.35;;;;;;;22.89;59.62;92897.59;5060962;28;20060;-78
2021/06/16 10:38:58;;;;;;;58.42;31.73;;;;;;;23.03;59.21;92897.88;5076931;28;20486;-77
2021/06/16 10:41:49;;;;;;;56.03;29.45;;;;;;;23.24;59.42;92897.50;5076034;28;20216;-79
2021/06/16 10:44:22;;;;;;;56.97;32.50;;;;;;;23.03;58.42;92893.34;5077495;28;20064;-77
2021/06/16 10:46:47;;;;;;;55.90;32.95;;;;;;;23.54;57.54;92902.19;5080508;28;20037;-78
2021/06/16 10:49:13;;;;;;;55.10;29.88;;;;;;;23.27;57.74;92900.22;5062827;28;20559;-78
2021/06/16 10:51:41;;;;;;;61.85;30.75;;;;;;;23.39;58.27;92901.94;5058399;28;20068;-77
2021/06/16 10:54:13;;;;;;;54.85;31.48;;;;;;;23.30;57.41;92895.31;5042588;28;20081;-77
2021/06/16 10:56:44;;;;;;;51.60;30.35;;;;;;;23.36;58.73;92894.66;5048782;28;20040;-79
2021/06/16 10:59:11;;;;;;;62.88;33.38;;;;;;;23.31;57.07;92908.31;5081147;28;20048;-78
2021/06/16 11:01:48;;;;;;;55.75;31.15;;;;;;;23.58;57.55;92900.38;5046061;28;20025;-78
2021/06/16 11:04:29;;;;;;;54.97;30.48;;;;;;;23.61;57.50;92910.31;5080603;28;20098;-78
2021/06/16 11:06:57;;;;;;;54.38;30.85;;;;;;;24.05;56.21;92904.53;5062800;28;20055;-79
2021/06/16 11:09:49;;;;;;;63.35;30.55;;;;;;;24.45;54.65;92897.81;5079393;28;20059;-78
2021/06/16 11:12:15;;;;;;;52.33;28.85;;;;;;;24.12;56.00;92891.28;5052273;28;20041;-78
2021/06/16 11:14:42;;;;;;;52.03;27.90;;;;;;;24.25;56.56;92899.84;5045270;28;20052;-79
2021/06/16 11:17:10;;;;;;;54.60;28.83;;;;;;;25.01;54.37;92896.97;5061118;28;20104;-78
2021/06/16 11:19:35;;;;;;;61.15;31.35;;;;;;;25.06;53.27;92896.66;5080053;28;20062;-77
2021/06/16 11:22:07;;;;;;;52.45;26.63;;;;;;;25.25;53.38;92900.31;5069772;28;20052;-78
2021/06/16 11:25:07;;;;;;;52.38;28.35;;;;;;;25.20;51.32;92895.28;5058515;28;20049;-78
2021/06/16 11:27:54;;;;;;;60.92;31.88;;;;;;;24.25;53.92;92894.47;5024726;28;20056;-79
2021/06/16 11:30:31;;;;;;;62.65;32.15;;;;;;;24.52;53.47;92884.56;5052624;28;20047;-79
2021/06/16 11:33:12;;;;;;;46.85;26.60;;;;;;;24.42;53.93;92888.59;5061875;28;20132;-78
2021/06/16 11:35:40;;;;;;;57.75;29.05;;;;;;;24.37;53.22;92880.13;5079358;28;20068;-78
2021/06/16 11:38:10;;;;;;;54.85;30.00;;;;;;;24.22;53.90;92874.59;5042050;28;20506;-79
2021/06/16 11:40:35;;;;;;;50.15;27.83;;;;;;;23.88;55.21;92871.06;5042170;28;20041;-78
2021/06/16 11:43:01;;;;;;;53.97;29.52;;;;;;;23.18;55.94;92874.88;5042161;28;20037;-79
2021/06/16 11:45:29;;;;;;;50.70;28.55;;;;;;;23.36;55.95;92878.63;5059822;28;20080;-78
2021/06/16 11:47:58;;;;;;;53.83;30.38;;;;;;;23.59;54.67;92880.50;5046926;28;20463;-77
2021/06/16 11:50:32;;;;;;;54.03;29.13;;;;;;;23.78;54.79;92877.81;5059100;28;20082;-76
2021/06/16 11:53:03;;;;;;;53.63;30.20;;;;;;;23.60;54.71;92876.72;5059456;28;20071;-78
2021/06/16 11:55:43;;;;;;;58.50;30.03;;;;;;;23.75;55.34;92875.81;5059528;28;20216;-78
2021/06/16 11:58:37;;;;;;;55.00;31.65;;;;;;;24.01;54.83;92868.97;5040984;28;20514;-77
2021/06/16 12:01:14;;;;;;;58.63;31.05;;;;;;;24.09;54.66;92860.69;5059118;28;20049;-77
2021/06/16 12:03:45;;;;;;;61.13;31.55;;;;;;;23.93;54.54;92853.94;5059558;28;20071;-78
2021/06/16 12:06:15;;;;;;;61.03;32.20;;;;;;;24.04;55.40;92857.53;5024878;28;20049;-78
2021/06/16 12:08:43;;;;;;;60.03;29.02;;;;;;;23.62;56.00;92856.53;5041553;28;20049;-78
2021/06/16 12:11:23;;;;;;;61.88;33.92;;;;;;;23.82;56.28;92851.91;5025151;28;20052;-78
2021/06/16 12:14:10;;;;;;;63.30;32.50;;;;;;;24.19;55.97;92851.25;5059462;28;20437;-77
2021/06/16 12:16:42;;;;;;;58.35;31.52;;;;;;;24.12;55.32;92848.47;5041989;28;20053;-78
2021/06/16 12:19:14;;;;;;;62.22;34.83;;;;;;;24.31;54.30;92844.91;5059127;28;20507;-75
2021/06/16 12:21:52;;;;;;;59.03;30.70;;;;;;;24.31;54.56;92845.66;5040308;28;20049;-78
2021/06/16 12:24:21;;;;;;;54.90;31.90;;;;;;;24.00;54.07;92846.81;5059137;28;20076;-78
2021/06/16 12:27:14;;;;;;;53.90;30.25;;;;;;;24.36;53.92;92846.47;5057477;28;20040;-78
2021/06/16 12:29:45;;;;;;;52.70;30.55;;;;;;;24.21;54.42;92848.22;5059055;28;20048;-79
2021/06/16 12:32:12;;;;;;;55.90;30.00;;;;;;;24.37;54.56;92856.06;5056605;28;20048;-78
2021/06/16 12:37:10;;;;;;;52.90;29.83;;;;;;;24.07;53.88;92857.59;5053632;28;20056;-79
2021/06/16 12:39:36;;;;;;;57.03;31.25;;;;;;;24.08;54.37;92853.78;5057198;28;20063;-78
2021/06/16 12:42:06;;;;;;;55.03;30.95;;;;;;;24.53;53.43;92845.97;5058455;28;20037;-78
2021/06/16 12:44:41;;;;;;;52.00;29.23;;;;;;;23.97;54.36;92847.50;5057833;28;20081;-78
2021/06/16 12:47:13;;;;;;;62.85;32.38;;;;;;;23.95;54.60;92849.00;5056669;28;20122;-79
2021/06/16 12:49:38;;;;;;;55.63;30.63;;;;;;;24.06;54.46;92836.56;5058431;28;20037;-79
2021/06/16 12:52:07;;;;;;;55.03;32.03;;;;;;;24.00;54.47;92841.47;5057339;28;20044;-78
2021/06/16 12:54:36;;;;;;;57.00;30.38;;;;;;;24.33;54.37;92841.88;5056767;28;20047;-78
2021/06/16 12:57:13;;;;;;;62.50;32.45;;;;;;;24.30;53.87;92838.78;5058443;28;20039;-79
2021/06/16 12:59:41;;;;;;;48.78;30.45;;;;;;;24.49;53.55;92842.47;5056640;28;20040;-78
2021/06/16 13:02:08;;;;;;;50.72;29.65;;;;;;;24.18;53.89;92825.63;5057993;28;20445;-78
2021/06/16 13:04:45;;;;;;;53.70;29.55;;;;;;;24.54;53.56;92836.78;5057195;28;20049;-78
2021/06/16 13:07:11;;;;;;;52.80;28.92;;;;;;;24.64;53.36;92830.03;5058463;28;20100;-77
2021/06/16 13:09:37;;;;;;;53.50;30.27;;;;;;;24.42;54.20;92837.00;5057342;28;20134;-78
2021/06/16 13:12:04;;;;;;;57.90;30.02;;;;;;;24.13;53.90;92825.94;5058059;28;20048;-76
2021/06/16 13:14:35;;;;;;;55.53;29.98;;;;;;;24.27;53.98;92828.03;5042610;28;20099;-78
2021/06/16 13:17:07;;;;;;;55.28;29.48;;;;;;;23.80;55.23;92822.09;5055338;28;20051;-78
2021/06/16 13:19:33;;;;;;;55.08;31.13;;;;;;;23.68;55.17;92828.34;5056627;28;20041;-77
2021/06/16 13:22:05;;;;;;;49.47;30.75;;;;;;;24.30;54.82;92822.72;5062725;28;20174;-78
2021/06/16 13:24:32;;;;;;;57.65;30.58;;;;;;;24.49;54.60;92821.81;5057686;28;20045;-77
2021/06/16 13:27:05;;;;;;;61.05;31.02;;;;;;;24.75;53.28;92827.47;5058402;28;20112;-78
2021/06/16 13:29:33;;;;;;;54.85;30.95;;;;;;;24.78;53.69;92829.41;5039197;28;20071;-78
2021/06/16 13:32:00;;;;;;;62.25;30.67;;;;;;;24.55;52.69;92816.16;5058143;28;20064;-78
2021/06/16 13:34:26;;;;;;;50.25;28.23;;;;;;;24.63;52.93;92826.59;5088683;28;20437;-75
2021/06/16 13:36:51;;;;;;;61.25;32.25;;;;;;;24.56;53.14;92815.78;5062905;28;20040;-77
2021/06/16 13:39:17;;;;;;;54.90;31.20;;;;;;;24.91;52.65;92817.31;5098104;28;20101;-77
2021/06/16 13:41:59;;;;;;;48.72;30.42;;;;;;;25.02;52.50;92815.50;5085429;28;20086;-78
2021/06/16 13:44:25;;;;;;;;;;;;;;;25.02;52.65;92812.06;5077846;28;20055;-78
2021/06/16 13:46:51;;;;;;;50.70;27.08;;;;;;;24.77;53.24;92811.78;5077207;28;20301;-77
2021/06/16 13:49:16;;;;;;;55.28;30.38;;;;;;;24.61;52.08;92804.78;5038988;28;20049;-78
2021/06/16 13:51:42;;;;;;;53.17;29.83;;;;;;;25.14;52.15;92817.13;5075829;28;20056;-79
2021/06/16 13:54:08;;;;;;;56.03;29.45;;;;;;;25.16;53.03;92811.41;5077075;28;20105;-77
2021/06/16 13:56:34;;;;;;;48.85;29.17;;;;;;;25.13;52.47;92824.41;5059166;28;20112;-78
2021/06/16 13:58:59;;;;;;;51.58;28.45;;;;;;;25.17;53.18;92813.69;5059303;28;20048;-78
2021/06/16 14:01:25;;;;;;;47.03;28.88;;;;;;;25.32;51.72;92814.63;5077509;28;20068;-78
2021/06/16 14:03:50;;;;;;;53.58;29.33;;;;;;;25.30;51.45;92814.22;5060890;28;20051;-78
2021/06/16 14:06:16;;;;;;;52.65;29.20;;;;;;;25.04;52.90;92807.06;5096253;28;20287;-78